createdAt,value
2023-04-16T00:02:20.932Z,80.97
2023-04-16T00:04:52.083Z,80.89
2023-04-16T00:07:22.829Z,80.87
2023-04-16T00:09:53.557Z,80.86
2023-04-16T00:12:24.669Z,80.78
2023-04-16T00:14:55.376Z,80.87
2023-04-16T00:17:26.271Z,80.65
2023-04-16T00:19:56.961Z,80.31
2023-04-16T00:22:27.634Z,80.12
2023-04-16T00:24:58.231Z,80.15
2023-04-16T00:27:28.876Z,80.12
2023-04-16T00:29:59.585Z,80.21
2023-04-16T00:32:30.649Z,80.26
2023-04-16T00:35:01.286Z,80.31
2023-04-16T00:37:32.027Z,80.31
2023-04-16T00:40:01.597Z,80.34
2023-04-16T00:42:32.304Z,80.35
2023-04-16T00:45:03.035Z,80.46
2023-04-16T00:47:33.893Z,80.28
2023-04-16T00:50:03.708Z,80.20
2023-04-16T00:52:34.935Z,80.32
2023-04-16T00:55:17.098Z,80.31
2023-04-16T00:57:47.775Z,80.03
2023-04-16T01:00:18.843Z,80.25
2023-04-16T01:02:49.745Z,80.31
2023-04-16T01:05:21.222Z,80.32
2023-04-16T01:07:52.163Z,80.22
2023-04-16T01:10:23.093Z,80.21
2023-04-16T01:12:53.793Z,80.26
2023-04-16T01:15:24.498Z,80.15
2023-04-16T01:17:55.166Z,80.19
2023-04-16T01:20:26.073Z,80.40
2023-04-16T01:22:55.175Z,80.72
2023-04-16T01:25:25.974Z,80.76
2023-04-16T01:27:56.674Z,80.93
2023-04-16T01:30:27.275Z,81.12
2023-04-16T01:32:58.075Z,81.29
2023-04-16T01:35:28.822Z,81.38
2023-04-16T01:37:59.482Z,81.64
2023-04-16T01:40:30.100Z,81.77
2023-04-16T01:43:00.746Z,81.60
2023-04-16T01:45:33.489Z,81.62
2023-04-16T01:48:05.141Z,81.85
2023-04-16T01:50:36.366Z,81.72
2023-04-16T01:53:07.040Z,81.71
2023-04-16T01:55:37.690Z,81.90
2023-04-16T01:58:08.365Z,82.22
2023-04-16T02:00:39.090Z,82.21
2023-04-16T02:03:09.977Z,82.02
2023-04-16T02:05:39.123Z,81.64
2023-04-16T02:08:09.738Z,81.29
2023-04-16T02:10:40.370Z,81.31
2023-04-16T02:13:11.007Z,81.30
2023-04-16T02:15:44.434Z,81.43
2023-04-16T02:18:15.338Z,81.24
2023-04-16T02:20:47.109Z,81.02
2023-04-16T02:23:18.012Z,81.21
2023-04-16T02:25:48.811Z,81.14
2023-04-16T02:28:19.508Z,81.26
2023-04-16T02:30:50.122Z,81.57
2023-04-16T02:33:20.807Z,81.63
2023-04-16T02:35:51.433Z,81.65
2023-04-16T02:38:22.201Z,81.55
2023-04-16T02:40:52.832Z,81.48
2023-04-16T02:43:23.525Z,81.16
2023-04-16T02:45:54.171Z,81.18
2023-04-16T02:48:24.850Z,81.19
2023-04-16T02:50:55.452Z,81.03
2023-04-16T02:53:26.213Z,81.01
2023-04-16T02:55:57.107Z,81.00
2023-04-16T02:58:28.339Z,81.36
2023-04-16T03:00:58.993Z,81.32
2023-04-16T03:03:29.650Z,81.11
2023-04-16T03:06:00.379Z,81.28
2023-04-16T03:08:31.086Z,81.56
2023-04-16T03:11:01.721Z,81.62
2023-04-16T03:13:34.544Z,81.52
2023-04-16T03:16:05.614Z,81.53
2023-04-16T03:18:36.308Z,81.12
2023-04-16T03:21:08.806Z,80.78
2023-04-16T03:23:39.460Z,80.77
2023-04-16T03:26:10.046Z,80.89
2023-04-16T03:28:40.685Z,80.89
2023-04-16T03:31:11.338Z,80.64
2023-04-16T03:33:42.014Z,80.62
2023-04-16T03:36:12.831Z,80.40
2023-04-16T03:38:43.521Z,80.51
2023-04-16T03:41:14.131Z,80.11
2023-04-16T03:43:44.817Z,79.98
2023-04-16T03:46:15.444Z,80.01
2023-04-16T03:48:46.117Z,79.93
2023-04-16T03:51:16.783Z,80.13
2023-04-16T03:53:47.470Z,80.08
2023-04-16T03:56:18.116Z,80.09
2023-04-16T03:58:48.774Z,80.06
2023-04-16T04:01:19.481Z,80.05
2023-04-16T04:03:50.459Z,80.02
2023-04-16T04:06:19.611Z,80.07
2023-04-16T04:08:50.251Z,80.07
2023-04-16T04:11:20.996Z,80.06
2023-04-16T04:13:51.657Z,79.97
2023-04-16T04:16:22.379Z,79.99
2023-04-16T04:18:53.176Z,80.09
2023-04-16T04:21:24.149Z,80.24
2023-04-16T04:23:56.146Z,80.42
2023-04-16T04:26:26.918Z,80.42
2023-04-16T04:28:57.623Z,80.36
2023-04-16T04:31:28.322Z,80.29
2023-04-16T04:33:58.986Z,80.36
2023-04-16T04:36:29.701Z,80.29
2023-04-16T04:39:00.435Z,80.18
2023-04-16T04:41:31.315Z,80.11
2023-04-16T04:44:00.440Z,80.02
2023-04-16T04:46:31.111Z,79.86
2023-04-16T04:49:01.790Z,79.73
2023-04-16T04:51:32.608Z,79.69
2023-04-16T04:54:03.267Z,79.76
2023-04-16T04:56:34.277Z,79.76
2023-04-16T04:59:05.852Z,79.61
2023-04-16T05:01:36.560Z,79.70
2023-04-16T05:04:07.386Z,79.64
2023-04-16T05:06:38.031Z,79.66
2023-04-16T05:09:08.933Z,79.70
2023-04-16T05:11:40.837Z,79.48
2023-04-16T05:14:11.521Z,79.51
2023-04-16T05:16:42.264Z,79.44
2023-04-16T05:19:12.984Z,79.43
2023-04-16T05:21:43.599Z,79.26
2023-04-16T05:24:15.047Z,79.41
2023-04-16T05:26:45.875Z,79.31
2023-04-16T05:29:17.034Z,79.27
2023-04-16T05:31:47.858Z,79.36
2023-04-16T05:34:18.481Z,79.35
2023-04-16T05:36:49.191Z,79.31
2023-04-16T05:39:19.908Z,79.24
2023-04-16T05:41:50.578Z,79.03
2023-04-16T05:44:21.301Z,78.94
2023-04-16T05:46:51.916Z,78.79
2023-04-16T05:49:22.612Z,78.56
2023-04-16T05:51:53.448Z,78.53
2023-04-16T05:54:24.099Z,78.83
2023-04-16T05:56:54.743Z,78.64
2023-04-16T05:59:25.442Z,78.54
2023-04-16T06:01:56.153Z,78.42
2023-04-16T06:04:26.855Z,78.52
2023-04-16T06:06:57.530Z,78.39
2023-04-16T06:09:28.218Z,78.34
2023-04-16T06:11:59.693Z,78.45
2023-04-16T06:14:30.385Z,78.37
2023-04-16T06:17:01.033Z,78.32
2023-04-16T06:19:31.868Z,78.24
2023-04-16T06:22:02.533Z,78.02
2023-04-16T06:24:33.360Z,78.18
2023-04-16T06:27:04.252Z,78.13
2023-04-16T06:29:40.696Z,78.04
2023-04-16T06:32:12.212Z,77.81
2023-04-16T06:34:42.970Z,77.67
2023-04-16T06:37:13.668Z,77.78
2023-04-16T06:39:44.340Z,77.66
2023-04-16T06:42:14.958Z,77.65
2023-04-16T06:44:46.574Z,77.41
2023-04-16T06:47:17.407Z,77.51
2023-04-16T06:49:48.168Z,77.38
2023-04-16T06:52:18.910Z,77.42
2023-04-16T06:54:49.667Z,77.09
2023-04-16T06:57:20.420Z,77.03
2023-04-16T06:59:51.108Z,76.95
2023-04-16T07:02:21.896Z,76.93
2023-04-16T07:04:52.820Z,76.74
2023-04-16T07:07:23.613Z,76.66
2023-04-16T07:09:54.513Z,76.74
2023-04-16T07:12:25.377Z,76.73
2023-04-16T07:14:56.117Z,76.64
2023-04-16T07:17:26.887Z,76.37
2023-04-16T07:19:57.650Z,76.40
2023-04-16T07:22:28.451Z,76.44
2023-04-16T07:24:59.123Z,76.26
2023-04-16T07:27:29.751Z,76.23
2023-04-16T07:30:00.463Z,76.01
2023-04-16T07:32:31.276Z,75.83
2023-04-16T07:35:00.495Z,76.09
2023-04-16T07:37:31.174Z,76.25
2023-04-16T07:40:01.862Z,76.39
2023-04-16T07:42:32.523Z,76.31
2023-04-16T07:45:03.324Z,76.28
2023-04-16T07:47:34.030Z,76.02
2023-04-16T07:50:05.594Z,76.24
2023-04-16T07:52:36.404Z,76.16
2023-04-16T07:55:14.855Z,76.21
2023-04-16T07:57:45.633Z,75.95
2023-04-16T08:00:16.867Z,75.74
2023-04-16T08:02:47.858Z,75.97
2023-04-16T08:05:18.890Z,76.07
2023-04-16T08:07:49.602Z,75.54
2023-04-16T08:10:22.791Z,75.10
2023-04-16T08:12:53.621Z,75.15
2023-04-16T08:15:24.433Z,75.08
2023-04-16T08:17:55.338Z,75.26
2023-04-16T08:20:24.776Z,75.06
2023-04-16T08:22:56.177Z,74.90
2023-04-16T08:25:26.861Z,74.73
2023-04-16T08:27:58.047Z,74.42
2023-04-16T08:30:28.821Z,74.42
2023-04-16T08:32:59.588Z,73.95
2023-04-16T08:35:30.247Z,74.00
2023-04-16T08:38:02.355Z,73.50
2023-04-16T08:40:38.028Z,73.51
2023-04-16T08:43:12.807Z,73.71
2023-04-16T08:45:47.344Z,73.55
2023-04-16T08:48:18.961Z,73.71
2023-04-16T08:50:52.322Z,73.66
2023-04-16T08:53:33.038Z,73.25
2023-04-16T08:56:05.791Z,72.60
2023-04-16T08:58:37.774Z,72.62
2023-04-16T09:01:10.881Z,72.49
2023-04-16T09:03:43.786Z,71.98
2023-04-16T09:06:15.441Z,71.64
2023-04-16T09:08:48.041Z,71.51
2023-04-16T09:11:19.810Z,71.25
2023-04-16T09:13:50.481Z,71.39
2023-04-16T09:16:21.995Z,70.83
2023-04-16T09:18:53.643Z,70.66
2023-04-16T09:21:25.004Z,70.73
2023-04-16T09:23:56.223Z,70.76
2023-04-16T09:26:27.876Z,70.40
2023-04-16T09:28:58.628Z,69.83
2023-04-16T09:31:29.407Z,69.57
2023-04-16T09:34:05.473Z,69.19
2023-04-16T09:36:36.812Z,68.34
2023-04-16T09:39:07.620Z,68.64
2023-04-16T09:41:36.796Z,68.48
2023-04-16T09:44:07.710Z,68.43
2023-04-16T09:46:43.167Z,67.60
2023-04-16T09:49:16.675Z,67.22
2023-04-16T09:51:48.497Z,67.70
2023-04-16T09:54:19.867Z,67.80
2023-04-16T09:56:50.507Z,67.60
2023-04-16T09:59:22.811Z,67.32
2023-04-16T10:02:14.734Z,66.74
2023-04-16T10:04:51.846Z,66.77
2023-04-16T10:07:23.359Z,66.51
2023-04-16T10:09:54.590Z,66.33
2023-04-16T10:12:25.264Z,65.75
2023-04-16T10:14:56.043Z,65.73
2023-04-16T10:17:25.248Z,64.36
2023-04-16T10:19:57.692Z,63.64
2023-04-16T10:22:28.696Z,63.52
2023-04-16T10:25:00.124Z,63.53
2023-04-16T10:27:31.250Z,63.35
2023-04-16T10:30:02.805Z,63.25
2023-04-16T10:32:33.988Z,62.92
2023-04-16T10:35:05.099Z,63.29
2023-04-16T10:37:37.403Z,63.38
2023-04-16T10:40:25.549Z,63.30
2023-04-16T10:43:00.149Z,62.80
2023-04-16T10:45:37.412Z,62.48
2023-04-16T10:48:09.059Z,62.06
2023-04-16T10:50:40.021Z,62.44
2023-04-16T10:53:24.541Z,62.26
2023-04-16T10:56:12.045Z,61.78
2023-04-16T10:58:43.188Z,61.26
2023-04-16T11:01:14.472Z,61.55
2023-04-16T11:03:46.823Z,61.99
2023-04-16T11:06:25.413Z,61.58
2023-04-16T11:08:55.994Z,61.29
2023-04-16T11:11:28.916Z,61.13
2023-04-16T11:13:59.829Z,60.87
2023-04-16T11:16:31.899Z,60.57
2023-04-16T11:19:02.609Z,60.64
2023-04-16T11:21:34.234Z,61.48
2023-04-16T11:24:05.189Z,62.08
2023-04-16T11:26:35.931Z,62.23
2023-04-16T11:29:15.006Z,62.63
2023-04-16T11:31:51.812Z,62.98
2023-04-16T11:34:22.754Z,62.63
2023-04-16T11:36:52.146Z,62.41
2023-04-16T11:39:22.854Z,62.63
2023-04-16T11:41:53.565Z,62.63
2023-04-16T11:44:25.721Z,62.16
2023-04-16T11:46:56.458Z,62.14
2023-04-16T11:49:30.908Z,62.10
2023-04-16T11:52:02.009Z,62.14
2023-04-16T11:54:32.682Z,62.21
2023-04-16T11:57:03.420Z,61.54
2023-04-16T11:59:32.485Z,61.76
2023-04-16T12:02:03.481Z,61.10
2023-04-16T12:04:35.035Z,61.62
2023-04-16T12:07:11.069Z,61.51
2023-04-16T12:09:42.781Z,61.81
2023-04-16T12:12:30.300Z,61.35
2023-04-16T12:15:01.515Z,61.79
2023-04-16T12:17:33.580Z,61.77
2023-04-16T12:20:09.422Z,61.37
2023-04-16T12:22:43.931Z,60.58
2023-04-16T12:25:15.984Z,60.16
2023-04-16T12:27:50.732Z,60.23
2023-04-16T12:30:25.109Z,60.44
2023-04-16T12:33:16.021Z,60.42
2023-04-16T12:35:45.299Z,60.58
2023-04-16T12:38:15.969Z,60.67
2023-04-16T12:40:47.068Z,60.59
2023-04-16T12:43:17.886Z,60.07
2023-04-16T12:45:48.624Z,60.49
2023-04-16T12:48:17.746Z,60.26
2023-04-16T12:50:48.738Z,60.02
2023-04-16T12:53:19.511Z,60.06
2023-04-16T12:55:48.563Z,60.23
2023-04-16T12:58:19.237Z,60.14
2023-04-16T13:00:49.940Z,59.24
2023-04-16T13:03:19.147Z,59.01
2023-04-16T13:05:50.040Z,59.17
2023-04-16T13:08:19.146Z,59.02
2023-04-16T13:10:49.917Z,58.28
2023-04-16T13:13:19.082Z,58.87
2023-04-16T13:15:49.773Z,59.05
2023-04-16T13:18:20.558Z,58.83
2023-04-16T13:20:51.239Z,58.82
2023-04-16T13:23:21.982Z,59.47
2023-04-16T13:25:52.815Z,59.23
2023-04-16T13:28:21.993Z,58.94
2023-04-16T13:30:52.834Z,58.73
2023-04-16T13:33:21.997Z,58.65
2023-04-16T13:35:52.680Z,58.72
2023-04-16T13:38:23.387Z,59.06
2023-04-16T13:40:54.203Z,59.10
2023-04-16T13:43:23.352Z,59.10
2023-04-16T13:45:54.122Z,58.54
2023-04-16T13:48:25.153Z,58.41
2023-04-16T13:50:55.910Z,58.83
2023-04-16T13:53:27.069Z,58.55
2023-04-16T13:55:57.761Z,58.49
2023-04-16T13:58:28.471Z,58.28
2023-04-16T14:00:57.638Z,58.65
2023-04-16T14:03:28.598Z,57.96
2023-04-16T14:05:59.330Z,58.22
2023-04-16T14:08:30.031Z,58.39
2023-04-16T14:11:00.826Z,57.76
2023-04-16T14:13:31.689Z,59.09
2023-04-16T14:16:02.366Z,60.24
2023-04-16T14:18:33.017Z,60.68
2023-04-16T14:21:03.775Z,61.39
2023-04-16T14:23:34.536Z,61.56
2023-04-16T14:26:05.516Z,62.53
2023-04-16T14:28:36.236Z,63.07
2023-04-16T14:31:06.905Z,63.69
2023-04-16T14:33:37.561Z,64.69
2023-04-16T14:36:10.135Z,65.00
2023-04-16T14:38:50.228Z,65.43
2023-04-16T14:41:20.958Z,65.87
2023-04-16T14:43:51.616Z,65.83
2023-04-16T14:46:22.253Z,65.71
2023-04-16T14:48:52.963Z,65.81
2023-04-16T14:51:24.031Z,66.06
2023-04-16T14:53:54.766Z,66.37
2023-04-16T14:56:33.886Z,66.71
2023-04-16T14:59:04.587Z,66.22
2023-04-16T15:01:35.809Z,67.27
2023-04-16T15:04:06.748Z,67.18
2023-04-16T15:06:36.139Z,67.09
2023-04-16T15:09:06.829Z,66.62
2023-04-16T15:11:37.454Z,67.26
2023-04-16T15:14:08.212Z,66.87
2023-04-16T15:16:37.407Z,67.18
2023-04-16T15:19:08.326Z,67.07
2023-04-16T15:21:37.446Z,67.22
2023-04-16T15:24:11.117Z,67.79
2023-04-16T15:26:41.929Z,67.59
2023-04-16T15:29:12.559Z,66.90
2023-04-16T15:31:43.778Z,67.23
2023-04-16T15:34:14.869Z,67.09
2023-04-16T15:36:45.602Z,67.00
2023-04-16T15:39:16.374Z,67.17
2023-04-16T15:42:00.077Z,67.49
2023-04-16T15:44:33.062Z,67.74
2023-04-16T15:47:04.058Z,68.46
2023-04-16T15:49:33.157Z,68.07
2023-04-16T15:52:04.194Z,68.40
2023-04-16T15:54:34.993Z,69.01
2023-04-16T15:57:05.699Z,68.98
2023-04-16T15:59:36.442Z,69.12
2023-04-16T16:02:07.591Z,70.11
2023-04-16T16:04:38.560Z,70.49
2023-04-16T16:07:07.884Z,69.84
2023-04-16T16:09:38.702Z,70.23
2023-04-16T16:12:07.883Z,70.70
2023-04-16T16:14:38.708Z,70.21
2023-04-16T16:17:09.345Z,70.60
2023-04-16T16:19:39.978Z,71.42
2023-04-16T16:22:10.636Z,70.68
2023-04-16T16:24:41.319Z,71.51
2023-04-16T16:27:11.964Z,71.91
2023-04-16T16:29:42.899Z,71.43
2023-04-16T16:32:12.201Z,72.67
2023-04-16T16:34:42.810Z,72.86
2023-04-16T16:37:13.432Z,72.71
2023-04-16T16:39:44.148Z,72.85
2023-04-16T16:42:14.804Z,72.34
2023-04-16T16:44:45.525Z,72.20
2023-04-16T16:47:16.256Z,72.29
2023-04-16T16:49:47.760Z,72.10
2023-04-16T16:52:18.527Z,71.88
2023-04-16T16:54:49.230Z,72.58
2023-04-16T16:57:21.093Z,72.50
2023-04-16T16:59:52.027Z,72.65
2023-04-16T17:02:21.304Z,72.31
2023-04-16T17:04:52.001Z,72.39
2023-04-16T17:07:22.683Z,73.58
2023-04-16T17:09:53.406Z,73.56
2023-04-16T17:12:24.057Z,74.04
2023-04-16T17:14:54.675Z,73.60
2023-04-16T17:17:26.651Z,74.26
2023-04-16T17:19:57.512Z,75.25
2023-04-16T17:22:28.269Z,75.56
2023-04-16T17:24:58.932Z,76.46
2023-04-16T17:27:29.913Z,75.94
2023-04-16T17:29:59.035Z,76.03
2023-04-16T17:32:30.527Z,75.18
2023-04-16T17:35:01.929Z,75.25
2023-04-16T17:37:33.026Z,75.51
2023-04-16T17:40:02.254Z,75.74
2023-04-16T17:42:32.966Z,75.81
2023-04-16T17:45:04.158Z,75.22
2023-04-16T17:47:36.124Z,75.80
2023-04-16T17:50:08.944Z,76.32
2023-04-16T17:52:39.758Z,76.75
2023-04-16T17:55:19.741Z,77.37
2023-04-16T17:57:50.386Z,77.87
2023-04-16T18:00:21.919Z,78.29
2023-04-16T18:02:52.752Z,77.15
2023-04-16T18:05:22.220Z,77.65
2023-04-16T18:07:52.952Z,77.99
2023-04-16T18:10:23.952Z,78.44
2023-04-16T18:12:54.625Z,78.42
2023-04-16T18:15:25.292Z,78.24
2023-04-16T18:17:56.074Z,78.85
2023-04-16T18:20:26.786Z,78.59
2023-04-16T18:22:57.475Z,79.29
2023-04-16T18:25:34.336Z,79.68
2023-04-16T18:28:05.896Z,78.72
2023-04-16T18:30:40.242Z,79.11
2023-04-16T18:33:38.883Z,79.52
2023-04-16T18:36:02.855Z,79.14
2023-04-16T18:38:34.030Z,79.08
2023-04-16T18:41:04.762Z,78.79
2023-04-16T18:43:35.372Z,79.24
2023-04-16T18:46:06.138Z,79.08
2023-04-16T18:48:37.000Z,78.84
2023-04-16T18:51:07.972Z,79.16
2023-04-16T18:53:37.156Z,79.64
2023-04-16T18:56:10.106Z,79.43
2023-04-16T18:58:40.935Z,79.57
2023-04-16T19:01:11.814Z,79.97
2023-04-16T19:03:42.582Z,79.94
2023-04-16T19:06:13.407Z,79.46
2023-04-16T19:08:44.172Z,80.02
2023-04-16T19:11:14.965Z,79.94
2023-04-16T19:13:45.632Z,80.90
2023-04-16T19:16:16.484Z,80.46
2023-04-16T19:18:47.298Z,80.64
2023-04-16T19:21:18.159Z,80.71
2023-04-16T19:23:48.826Z,80.66
2023-04-16T19:26:19.537Z,81.85
2023-04-16T19:28:50.222Z,81.58
2023-04-16T19:31:21.284Z,80.94
2023-04-16T19:33:52.000Z,80.84
2023-04-16T19:36:22.738Z,81.43
2023-04-16T19:38:53.390Z,81.06
2023-04-16T19:41:24.382Z,80.77
2023-04-16T19:43:54.019Z,81.01
2023-04-16T19:46:24.715Z,81.29
2023-04-16T19:48:55.452Z,81.19
2023-04-16T19:51:24.809Z,80.89
2023-04-16T19:53:55.756Z,81.14
2023-04-16T19:56:26.306Z,81.47
2023-04-16T19:58:56.976Z,81.78
2023-04-16T20:01:27.758Z,81.69
2023-04-16T20:03:58.525Z,82.19
2023-04-16T20:06:29.182Z,81.95
2023-04-16T20:08:59.878Z,81.43
2023-04-16T20:11:30.818Z,82.07
2023-04-16T20:14:01.505Z,81.91
2023-04-16T20:16:32.292Z,82.02
2023-04-16T20:19:05.120Z,81.69
2023-04-16T20:21:37.204Z,81.88
2023-04-16T20:24:10.266Z,82.21
2023-04-16T20:26:41.009Z,81.51
2023-04-16T20:29:11.800Z,82.03
2023-04-16T20:31:41.019Z,82.29
2023-04-16T20:34:12.123Z,82.73
2023-04-16T20:36:42.758Z,82.31
2023-04-16T20:39:13.612Z,82.36
2023-04-16T20:41:44.498Z,82.62
2023-04-16T20:44:15.126Z,82.33
2023-04-16T20:46:45.874Z,82.03
2023-04-16T20:49:16.480Z,81.99
2023-04-16T20:51:47.133Z,82.04
2023-04-16T20:54:17.756Z,81.80
2023-04-16T20:56:48.384Z,81.62
2023-04-16T20:59:19.145Z,81.98
2023-04-16T21:01:50.106Z,81.49
2023-04-16T21:04:20.998Z,81.54
2023-04-16T21:06:51.711Z,81.43
2023-04-16T21:09:22.395Z,81.75
2023-04-16T21:11:53.174Z,81.54
2023-04-16T21:14:23.829Z,81.66
2023-04-16T21:16:54.484Z,82.14
2023-04-16T21:19:25.177Z,81.99
2023-04-16T21:21:55.855Z,81.55
2023-04-16T21:24:26.489Z,81.83
2023-04-16T21:26:57.152Z,81.87
2023-04-16T21:29:27.840Z,82.02
2023-04-16T21:31:58.620Z,81.81
2023-04-16T21:34:29.262Z,82.06
2023-04-16T21:36:59.903Z,81.96
2023-04-16T21:39:31.000Z,81.65
2023-04-16T21:42:01.739Z,81.58
2023-04-16T21:44:32.347Z,82.05
2023-04-16T21:47:03.029Z,81.92
2023-04-16T21:49:33.678Z,81.70
2023-04-16T21:52:04.563Z,82.45
2023-04-16T21:54:35.222Z,82.01
2023-04-16T21:57:05.931Z,82.15
2023-04-16T21:59:36.511Z,82.37
2023-04-16T22:02:07.704Z,82.18
2023-04-16T22:04:39.116Z,82.61
2023-04-16T22:07:10.206Z,82.59
2023-04-16T22:09:39.292Z,82.82
2023-04-16T22:12:11.613Z,82.51
2023-04-16T22:14:52.309Z,82.59
2023-04-16T22:17:32.700Z,82.76
2023-04-16T22:20:03.525Z,82.88
2023-04-16T22:22:34.344Z,83.27
2023-04-16T22:25:05.908Z,82.93
2023-04-16T22:27:36.902Z,82.66
2023-04-16T22:30:07.092Z,83.04
2023-04-16T22:32:37.867Z,82.94
2023-04-16T22:35:11.114Z,83.26
2023-04-16T22:37:41.776Z,83.35
2023-04-16T22:40:14.472Z,83.66
2023-04-16T22:42:45.190Z,83.50
2023-04-16T22:45:15.884Z,84.12
2023-04-16T22:47:46.620Z,83.71
2023-04-16T22:50:17.630Z,83.77
2023-04-16T22:52:46.714Z,83.72
2023-04-16T22:55:17.359Z,83.93
2023-04-16T22:57:48.028Z,83.74
2023-04-16T23:00:20.680Z,83.51
2023-04-16T23:02:51.507Z,83.54
2023-04-16T23:05:22.385Z,83.66
2023-04-16T23:07:53.117Z,83.63
2023-04-16T23:10:23.774Z,83.72
2023-04-16T23:12:54.529Z,83.65
2023-04-16T23:15:25.158Z,84.15
2023-04-16T23:17:55.836Z,83.80
2023-04-16T23:20:26.553Z,83.90
2023-04-16T23:22:57.244Z,83.99
2023-04-16T23:25:27.895Z,83.80
2023-04-16T23:27:58.565Z,83.90
2023-04-16T23:30:29.228Z,84.14
2023-04-16T23:32:59.939Z,84.29
2023-04-16T23:35:30.600Z,84.37
2023-04-16T23:38:01.289Z,83.70
2023-04-16T23:40:31.930Z,84.41
2023-04-16T23:43:02.570Z,84.32
2023-04-16T23:45:33.238Z,84.26
2023-04-16T23:48:04.079Z,84.63
2023-04-16T23:50:34.710Z,83.94
2023-04-16T23:53:05.502Z,84.07
2023-04-16T23:55:36.143Z,84.25
2023-04-16T23:58:06.863Z,84.10
